sensor_id;sensor_type;location;lat;lon;timestamp;pressure;altitude;pressure_sealevel;temperature;humidity
59240;BME280;45010;53.640;10.578;2023-08-01T00:01:15;99095.84;;;26.93;43.76
59240;BME280;45010;53.640;10.578;2023-08-01T00:04:16;99101.19;;;26.93;43.96
59240;BME280;45010;53.640;10.578;2023-08-01T00:07:16;99100.69;;;26.91;43.92
59240;BME280;45010;53.640;10.578;2023-08-01T00:10:17;99094.28;;;26.87;43.60
59240;BME280;45010;53.640;10.578;2023-08-01T00:13:17;99090.03;;;26.86;44.13
59240;BME280;45010;53.640;10.578;2023-08-01T00:16:17;99087.91;;;26.83;44.10
59240;BME280;45010;53.640;10.578;2023-08-01T00:19:18;99083.97;;;26.80;43.99
59240;BME280;45010;53.640;10.578;2023-08-01T00:22:18;99084.25;;;26.79;44.08
59240;BME280;45010;53.640;10.578;2023-08-01T00:25:18;99084.78;;;26.76;43.79
59240;BME280;45010;53.640;10.578;2023-08-01T00:28:19;99070.94;;;26.73;43.91
59240;BME280;45010;53.640;10.578;2023-08-01T00:31:19;99067.75;;;26.71;43.96
59240;BME280;45010;53.640;10.578;2023-08-01T00:34:19;99050.22;;;26.60;43.95
59240;BME280;45010;53.640;10.578;2023-08-01T00:37:19;99062.47;;;26.66;43.99
59240;BME280;45010;53.640;10.578;2023-08-01T00:40:20;99061.94;;;26.64;44.21
59240;BME280;45010;53.640;10.578;2023-08-01T00:43:20;99058.75;;;26.62;44.20
59240;BME280;45010;53.640;10.578;2023-08-01T00:46:20;99043.31;;;26.59;44.37
59240;BME280;45010;53.640;10.578;2023-08-01T00:49:21;99035.56;;;26.57;44.02
59240;BME280;45010;53.640;10.578;2023-08-01T00:52:22;99034.75;;;26.57;44.40
59240;BME280;45010;53.640;10.578;2023-08-01T00:55:22;99036.91;;;26.55;44.01
59240;BME280;45010;53.640;10.578;2023-08-01T00:58:23;99011.94;;;26.40;44.07
59240;BME280;45010;53.640;10.578;2023-08-01T01:01:23;99021.44;;;26.52;44.35
59240;BME280;45010;53.640;10.578;2023-08-01T01:04:24;99017.78;;;26.48;43.98
59240;BME280;45010;53.640;10.578;2023-08-01T01:07:25;99017.78;;;26.48;44.04
59240;BME280;45010;53.640;10.578;2023-08-01T01:10:26;99008.13;;;26.46;44.13
59240;BME280;45010;53.640;10.578;2023-08-01T01:13:26;99007.63;;;26.44;44.55
59240;BME280;45010;53.640;10.578;2023-08-01T01:16:26;98996.94;;;26.44;44.47
59240;BME280;45010;53.640;10.578;2023-08-01T01:19:27;98997.53;;;26.41;44.39
59240;BME280;45010;53.640;10.578;2023-08-01T01:22:28;98991.66;;;26.39;44.16
59240;BME280;45010;53.640;10.578;2023-08-01T01:25:30;98975.19;;;26.32;44.53
59240;BME280;45010;53.640;10.578;2023-08-01T01:28:32;98981.53;;;26.36;44.32
59240;BME280;45010;53.640;10.578;2023-08-01T01:31:33;98975.38;;;26.36;44.26
59240;BME280;45010;53.640;10.578;2023-08-01T01:34:34;98979.44;;;26.33;44.31
59240;BME280;45010;53.640;10.578;2023-08-01T01:37:34;98988.81;;;26.30;44.33
59240;BME280;45010;53.640;10.578;2023-08-01T01:40:35;98977.34;;;26.30;44.13
59240;BME280;45010;53.640;10.578;2023-08-01T01:43:35;98971.47;;;26.28;45.06
59240;BME280;45010;53.640;10.578;2023-08-01T01:46:35;98960.84;;;26.23;44.60
59240;BME280;45010;53.640;10.578;2023-08-01T01:49:36;98953.38;;;26.19;44.75
59240;BME280;45010;53.640;10.578;2023-08-01T01:52:36;98957.09;;;26.24;44.63
59240;BME280;45010;53.640;10.578;2023-08-01T01:55:37;98957.09;;;26.24;44.31
59240;BME280;45010;53.640;10.578;2023-08-01T01:58:37;98957.34;;;26.22;44.55
59240;BME280;45010;53.640;10.578;2023-08-01T02:01:37;98948.84;;;26.20;44.83
59240;BME280;45010;53.640;10.578;2023-08-01T02:04:38;98943.78;;;26.18;44.33
59240;BME280;45010;53.640;10.578;2023-08-01T02:07:38;98943.78;;;26.18;44.64
59240;BME280;45010;53.640;10.578;2023-08-01T02:10:38;98936.84;;;26.17;44.80
59240;BME280;45010;53.640;10.578;2023-08-01T02:13:39;98934.47;;;26.16;44.74
59240;BME280;45010;53.640;10.578;2023-08-01T02:16:39;98932.88;;;26.15;44.72
59240;BME280;45010;53.640;10.578;2023-08-01T02:19:39;98930.47;;;26.13;44.93
59240;BME280;45010;53.640;10.578;2023-08-01T02:22:40;98934.72;;;26.14;44.89
59240;BME280;45010;53.640;10.578;2023-08-01T02:25:41;98909.44;;;26.06;44.81
59240;BME280;45010;53.640;10.578;2023-08-01T02:28:41;98915.00;;;26.10;44.80
59240;BME280;45010;53.640;10.578;2023-08-01T02:31:41;98914.22;;;26.10;44.59
59240;BME280;45010;53.640;10.578;2023-08-01T02:34:42;98918.75;;;26.09;44.50
59240;BME280;45010;53.640;10.578;2023-08-01T02:37:42;98911.03;;;26.08;44.70
59240;BME280;45010;53.640;10.578;2023-08-01T02:40:43;98910.53;;;26.05;44.82
59240;BME280;45010;53.640;10.578;2023-08-01T02:43:43;98902.88;;;25.99;45.01
59240;BME280;45010;53.640;10.578;2023-08-01T02:46:43;98919.13;;;26.02;44.70
59240;BME280;45010;53.640;10.578;2023-08-01T02:49:44;98906.53;;;26.03;44.73
59240;BME280;45010;53.640;10.578;2023-08-01T02:52:44;98912.97;;;26.02;44.91
59240;BME280;45010;53.640;10.578;2023-08-01T02:55:44;98923.66;;;26.02;44.98
59240;BME280;45010;53.640;10.578;2023-08-01T02:58:47;98912.47;;;26.00;44.60
59240;BME280;45010;53.640;10.578;2023-08-01T03:01:48;98916.22;;;25.99;44.80
59240;BME280;45010;53.640;10.578;2023-08-01T03:04:48;98917.28;;;25.98;44.87
59240;BME280;45010;53.640;10.578;2023-08-01T03:07:48;98902.34;;;25.97;44.84
59240;BME280;45010;53.640;10.578;2023-08-01T03:10:49;98898.09;;;25.96;45.00
59240;BME280;45010;53.640;10.578;2023-08-01T03:13:49;98891.16;;;25.95;45.02
59240;BME280;45010;53.640;10.578;2023-08-01T03:16:50;98879.66;;;25.94;44.77
59240;BME280;45010;53.640;10.578;2023-08-01T03:19:51;98871.16;;;25.92;44.89
59240;BME280;45010;53.640;10.578;2023-08-01T03:22:51;98886.38;;;25.91;45.05
59240;BME280;45010;53.640;10.578;2023-08-01T03:25:51;98887.47;;;25.90;44.82
59240;BME280;45010;53.640;10.578;2023-08-01T03:28:52;98893.88;;;25.89;44.80
59240;BME280;45010;53.640;10.578;2023-08-01T03:31:52;98883.22;;;25.89;45.28
59240;BME280;45010;53.640;10.578;2023-08-01T03:34:52;98872.53;;;25.89;45.10
59240;BME280;45010;53.640;10.578;2023-08-01T03:37:53;98865.59;;;25.88;45.21
59240;BME280;45010;53.640;10.578;2023-08-01T03:40:53;98869.34;;;25.87;45.09
59240;BME280;45010;53.640;10.578;2023-08-01T03:43:53;98862.41;;;25.86;45.20
59240;BME280;45010;53.640;10.578;2023-08-01T03:46:54;98869.63;;;25.86;44.96
59240;BME280;45010;53.640;10.578;2023-08-01T03:49:55;98867.25;;;25.84;45.14
59240;BME280;45010;53.640;10.578;2023-08-01T03:52:55;98849.63;;;25.83;45.38
59240;BME280;45010;53.640;10.578;2023-08-01T03:55:55;98851.50;;;25.83;44.89
59240;BME280;45010;53.640;10.578;2023-08-01T03:58:56;98848.09;;;25.77;45.42
59240;BME280;45010;53.640;10.578;2023-08-01T04:01:56;98854.47;;;25.81;45.06
59240;BME280;45010;53.640;10.578;2023-08-01T04:04:57;98842.19;;;25.80;45.18
59240;BME280;45010;53.640;10.578;2023-08-01T04:07:57;98850.19;;;25.80;45.30
59240;BME280;45010;53.640;10.578;2023-08-01T04:10:57;98845.94;;;25.79;45.11
59240;BME280;45010;53.640;10.578;2023-08-01T04:13:58;98839.00;;;25.78;45.33
59240;BME280;45010;53.640;10.578;2023-08-01T04:16:58;98833.72;;;25.73;45.21
59240;BME280;45010;53.640;10.578;2023-08-01T04:19:59;98848.91;;;25.77;45.36
59240;BME280;45010;53.640;10.578;2023-08-01T04:22:59;98843.03;;;25.75;45.30
59240;BME280;45010;53.640;10.578;2023-08-01T04:25:59;98835.84;;;25.76;45.23
59240;BME280;45010;53.640;10.578;2023-08-01T04:28:59;98832.63;;;25.74;45.37
59240;BME280;45010;53.640;10.578;2023-08-01T04:32:00;98830.06;;;25.69;45.48
59240;BME280;45010;53.640;10.578;2023-08-01T04:35:00;98843.31;;;25.74;45.16
59240;BME280;45010;53.640;10.578;2023-08-01T04:38:00;98843.31;;;25.74;45.20
59240;BME280;45010;53.640;10.578;2023-08-01T04:41:01;98848.16;;;25.72;45.25
59240;BME280;45010;53.640;10.578;2023-08-01T04:44:03;98838.56;;;25.71;45.54
59240;BME280;45010;53.640;10.578;2023-08-01T04:47:03;98844.69;;;25.71;45.38
59240;BME280;45010;53.640;10.578;2023-08-01T04:50:04;98847.66;;;25.70;45.16
59240;BME280;45010;53.640;10.578;2023-08-01T04:53:04;98836.97;;;25.70;45.46
59240;BME280;45010;53.640;10.578;2023-08-01T04:56:06;98836.53;;;25.62;45.63
59240;BME280;45010;53.640;10.578;2023-08-01T04:59:06;98841.78;;;25.68;45.28
59240;BME280;45010;53.640;10.578;2023-08-01T05:02:07;98837.53;;;25.67;45.58
59240;BME280;45010;53.640;10.578;2023-08-01T05:05:07;98832.19;;;25.67;45.32
59240;BME280;45010;53.640;10.578;2023-08-01T05:08:07;98830.66;;;25.60;45.43
59240;BME280;45010;53.640;10.578;2023-08-01T05:11:08;98841.28;;;25.65;45.52
59240;BME280;45010;53.640;10.578;2023-08-01T05:14:08;98846.63;;;25.65;45.68
59240;BME280;45010;53.640;10.578;2023-08-01T05:17:08;98841.88;;;25.62;45.64
59240;BME280;45010;53.640;10.578;2023-08-01T05:20:09;98839.69;;;25.64;45.74
59240;BME280;45010;53.640;10.578;2023-08-01T05:23:09;98831.97;;;25.63;45.49
59240;BME280;45010;53.640;10.578;2023-08-01T05:26:10;98833.88;;;25.62;45.67
59240;BME280;45010;53.640;10.578;2023-08-01T05:29:10;98831.19;;;25.62;45.71
59240;BME280;45010;53.640;10.578;2023-08-01T05:32:10;98824.25;;;25.61;45.71
59240;BME280;45010;53.640;10.578;2023-08-01T05:35:11;98828.81;;;25.61;46.03
59240;BME280;45010;53.640;10.578;2023-08-01T05:38:11;98831.75;;;25.59;45.74
59240;BME280;45010;53.640;10.578;2023-08-01T05:41:11;98832.84;;;25.58;46.16
59240;BME280;45010;53.640;10.578;2023-08-01T05:44:12;98837.09;;;25.59;46.01
59240;BME280;45010;53.640;10.578;2023-08-01T05:47:12;98837.38;;;25.58;46.31
59240;BME280;45010;53.640;10.578;2023-08-01T05:50:12;98841.41;;;25.55;46.27
59240;BME280;45010;53.640;10.578;2023-08-01T05:53:13;98836.88;;;25.56;46.49
59240;BME280;45010;53.640;10.578;2023-08-01T05:56:13;98809.00;;;25.37;46.80
59240;BME280;45010;53.640;10.578;2023-08-01T05:59:14;98846.72;;;25.55;47.05
59240;BME280;45010;53.640;10.578;2023-08-01T06:02:14;98846.72;;;25.55;46.99
59240;BME280;45010;53.640;10.578;2023-08-01T06:05:15;98836.06;;;25.55;47.32
59240;BME280;45010;53.640;10.578;2023-08-01T06:08:15;98842.97;;;25.56;47.35
59240;BME280;45010;53.640;10.578;2023-08-01T06:11:15;98831.53;;;25.56;47.36
59240;BME280;45010;53.640;10.578;2023-08-01T06:14:16;98839.25;;;25.57;47.42
59240;BME280;45010;53.640;10.578;2023-08-01T06:17:17;98829.34;;;25.58;47.53
59240;BME280;45010;53.640;10.578;2023-08-01T06:20:17;98836.00;;;25.60;47.64
59240;BME280;45010;53.640;10.578;2023-08-01T06:23:17;98834.13;;;25.61;47.41
59240;BME280;45010;53.640;10.578;2023-08-01T06:26:18;98824.47;;;25.65;47.37
59240;BME280;45010;53.640;10.578;2023-08-01T06:29:18;98826.84;;;25.67;46.85
59240;BME280;45010;53.640;10.578;2023-08-01T06:32:19;98817.75;;;25.68;47.19
59240;BME280;45010;53.640;10.578;2023-08-01T06:35:19;98826.31;;;25.70;47.11
59240;BME280;45010;53.640;10.578;2023-08-01T06:38:22;98820.97;;;25.70;47.00
59240;BME280;45010;53.640;10.578;2023-08-01T06:41:22;98821.75;;;25.70;47.20
59240;BME280;45010;53.640;10.578;2023-08-01T06:44:22;98819.38;;;25.69;47.02
59240;BME280;45010;53.640;10.578;2023-08-01T06:47:23;98816.22;;;25.61;46.87
59240;BME280;45010;53.640;10.578;2023-08-01T06:50:23;98821.50;;;25.67;46.56
59240;BME280;45010;53.640;10.578;2023-08-01T06:53:23;98828.38;;;25.73;46.51
59240;BME280;45010;53.640;10.578;2023-08-01T06:56:24;98836.91;;;25.75;46.82
59240;BME280;45010;53.640;10.578;2023-08-01T06:59:24;98828.91;;;25.75;46.72
59240;BME280;45010;53.640;10.578;2023-08-01T07:02:24;98817.75;;;25.68;46.41
59240;BME280;45010;53.640;10.578;2023-08-01T07:05:25;98832.09;;;25.77;46.71
59240;BME280;45010;53.640;10.578;2023-08-01T07:08:26;98830.50;;;25.76;46.57
59240;BME280;45010;53.640;10.578;2023-08-01T07:11:26;98803.47;;;25.58;46.57
59240;BME280;45010;53.640;10.578;2023-08-01T07:14:26;98832.59;;;25.79;46.54
59240;BME280;45010;53.640;10.578;2023-08-01T07:17:27;98838.72;;;25.79;46.51
59240;BME280;45010;53.640;10.578;2023-08-01T07:20:27;98832.63;;;25.74;46.57
59240;BME280;45010;53.640;10.578;2023-08-01T07:23:27;98843.78;;;25.81;46.71
59240;BME280;45010;53.640;10.578;2023-08-01T07:26:28;98836.91;;;25.75;46.47
59240;BME280;45010;53.640;10.578;2023-08-01T07:29:29;98830.50;;;25.76;46.32
59240;BME280;45010;53.640;10.578;2023-08-01T07:32:29;98840.03;;;25.82;46.51
59240;BME280;45010;53.640;10.578;2023-08-01T07:35:29;98846.97;;;25.83;46.90
59240;BME280;45010;53.640;10.578;2023-08-01T07:38:30;98841.13;;;25.81;46.77
59240;BME280;45010;53.640;10.578;2023-08-01T07:41:33;98815.63;;;25.70;46.48
59240;BME280;45010;53.640;10.578;2023-08-01T07:44:34;98848.53;;;25.84;46.74
59240;BME280;45010;53.640;10.578;2023-08-01T07:47:34;98845.88;;;25.84;46.79
59240;BME280;45010;53.640;10.578;2023-08-01T07:50:35;98849.03;;;25.86;47.02
59240;BME280;45010;53.640;10.578;2023-08-01T07:53:35;98850.66;;;25.87;46.79
59240;BME280;45010;53.640;10.578;2023-08-01T07:56:35;98845.81;;;25.89;46.77
59240;BME280;45010;53.640;10.578;2023-08-01T07:59:36;98852.75;;;25.90;46.78
59240;BME280;45010;53.640;10.578;2023-08-01T08:02:36;98851.66;;;25.91;46.81
59240;BME280;45010;53.640;10.578;2023-08-01T08:05:36;98857.53;;;25.94;46.69
59240;BME280;45010;53.640;10.578;2023-08-01T08:08:38;98848.44;;;25.95;46.80
59240;BME280;45010;53.640;10.578;2023-08-01T08:11:38;98848.94;;;25.97;46.51
59240;BME280;45010;53.640;10.578;2023-08-01T08:14:39;98844.78;;;25.85;46.85
59240;BME280;45010;53.640;10.578;2023-08-01T08:17:40;98864.66;;;25.98;46.85
59240;BME280;45010;53.640;10.578;2023-08-01T08:20:43;98855.56;;;25.99;46.79
59240;BME280;45010;53.640;10.578;2023-08-01T08:23:44;98853.72;;;26.00;46.73
59240;BME280;45010;53.640;10.578;2023-08-01T08:26:44;98864.91;;;26.02;46.59
59240;BME280;45010;53.640;10.578;2023-08-01T08:29:45;98856.59;;;26.03;46.34
59240;BME280;45010;53.640;10.578;2023-08-01T08:32:46;98868.06;;;26.04;46.39
59240;BME280;45010;53.640;10.578;2023-08-01T08:35:46;98861.34;;;26.06;46.45
59240;BME280;45010;53.640;10.578;2023-08-01T08:38:47;98869.09;;;26.08;46.38
59240;BME280;45010;53.640;10.578;2023-08-01T08:41:49;98862.72;;;26.04;46.15
59240;BME280;45010;53.640;10.578;2023-08-01T08:44:50;98873.34;;;26.09;46.40
59240;BME280;45010;53.640;10.578;2023-08-01T08:47:55;98879.22;;;26.11;46.32
59240;BME280;45010;53.640;10.578;2023-08-01T08:51:00;98872.25;;;26.10;46.42
59240;BME280;45010;53.640;10.578;2023-08-01T08:54:01;98865.91;;;26.06;46.38
59240;BME280;45010;53.640;10.578;2023-08-01T08:57:05;98873.88;;;26.11;46.00
59240;BME280;45010;53.640;10.578;2023-08-01T09:00:07;98877.03;;;26.13;46.49
59240;BME280;45010;53.640;10.578;2023-08-01T09:03:07;98885.56;;;26.15;46.33
59240;BME280;45010;53.640;10.578;2023-08-01T09:06:12;98855.28;;;26.01;45.87
59240;BME280;45010;53.640;10.578;2023-08-01T09:09:15;98861.56;;;26.10;45.62
59240;BME280;45010;53.640;10.578;2023-08-01T09:12:15;98872.72;;;26.17;45.80
59240;BME280;45010;53.640;10.578;2023-08-01T09:15:16;98839.75;;;26.03;45.76
59240;BME280;45010;53.640;10.578;2023-08-01T09:18:16;98866.00;;;26.20;46.18
59240;BME280;45010;53.640;10.578;2023-08-01T09:21:20;98861.50;;;26.15;45.93
59240;BME280;45010;53.640;10.578;2023-08-01T09:24:21;98861.44;;;26.21;46.05
59240;BME280;45010;53.640;10.578;2023-08-01T09:27:21;98865.44;;;26.23;45.61
59240;BME280;45010;53.640;10.578;2023-08-01T09:30:25;98871.59;;;26.24;45.54
59240;BME280;45010;53.640;10.578;2023-08-01T09:33:25;98871.59;;;26.24;45.31
59240;BME280;45010;53.640;10.578;2023-08-01T09:36:26;98865.16;;;26.25;45.42
59240;BME280;45010;53.640;10.578;2023-08-01T09:39:26;98867.84;;;26.25;45.07
59240;BME280;45010;53.640;10.578;2023-08-01T09:42:37;98856.06;;;26.26;45.35
59240;BME280;45010;53.640;10.578;2023-08-01T09:45:37;98844.91;;;26.18;45.15
59240;BME280;45010;53.640;10.578;2023-08-01T09:48:48;98840.06;;;26.21;45.23
59240;BME280;45010;53.640;10.578;2023-08-01T09:51:50;98842.25;;;26.18;45.14
59240;BME280;45010;53.640;10.578;2023-08-01T09:54:50;98849.41;;;26.23;45.02
59240;BME280;45010;53.640;10.578;2023-08-01T09:57:53;98842.25;;;26.18;45.09
59240;BME280;45010;53.640;10.578;2023-08-01T10:00:56;98835.78;;;26.25;45.29
59240;BME280;45010;53.640;10.578;2023-08-01T10:03:58;98827.47;;;26.26;45.59
59240;BME280;45010;53.640;10.578;2023-08-01T10:07:04;98823.75;;;26.22;45.36
59240;BME280;45010;53.640;10.578;2023-08-01T10:10:07;98804.91;;;26.13;45.60
59240;BME280;45010;53.640;10.578;2023-08-01T10:13:08;98831.44;;;26.29;45.19
59240;BME280;45010;53.640;10.578;2023-08-01T10:16:09;98825.09;;;26.25;45.45
59240;BME280;45010;53.640;10.578;2023-08-01T10:19:12;98843.72;;;26.30;45.00
59240;BME280;45010;53.640;10.578;2023-08-01T10:22:13;98834.72;;;26.21;45.10
59240;BME280;45010;53.640;10.578;2023-08-01T10:25:14;98846.69;;;26.28;45.05
59240;BME280;45010;53.640;10.578;2023-08-01T10:28:14;98856.56;;;26.28;45.30
59240;BME280;45010;53.640;10.578;2023-08-01T10:31:16;98850.22;;;26.24;45.42
59240;BME280;45010;53.640;10.578;2023-08-01T10:34:17;98858.97;;;26.29;45.71
59240;BME280;45010;53.640;10.578;2023-08-01T10:37:17;98858.19;;;26.29;45.47
59240;BME280;45010;53.640;10.578;2023-08-01T10:40:17;98856.56;;;26.28;45.93
59240;BME280;45010;53.640;10.578;2023-08-01T10:43:22;98857.16;;;26.25;45.48
59240;BME280;45010;53.640;10.578;2023-08-01T10:46:22;98851.00;;;26.24;45.27
59240;BME280;45010;53.640;10.578;2023-08-01T10:49:42;98860.03;;;26.28;45.31
59240;BME280;45010;53.640;10.578;2023-08-01T10:52:43;98858.50;;;26.22;45.28
59240;BME280;45010;53.640;10.578;2023-08-01T10:55:45;98852.34;;;26.22;45.06
59240;BME280;45010;53.640;10.578;2023-08-01T10:58:47;98865.66;;;26.27;45.60
59240;BME280;45010;53.640;10.578;2023-08-01T11:01:58;98850.47;;;26.22;45.34
59240;BME280;45010;53.640;10.578;2023-08-01T11:05:06;98846.47;;;26.25;44.98
59240;BME280;45010;53.640;10.578;2023-08-01T11:08:06;98856.56;;;26.28;45.19
59240;BME280;45010;53.640;10.578;2023-08-01T11:11:11;98863.22;;;26.30;45.28
59240;BME280;45010;53.640;10.578;2023-08-01T11:14:12;98854.41;;;26.30;45.09
59240;BME280;45010;53.640;10.578;2023-08-01T11:17:13;98858.19;;;26.29;44.47
59240;BME280;45010;53.640;10.578;2023-08-01T11:20:14;98861.34;;;26.31;44.50
59240;BME280;45010;53.640;10.578;2023-08-01T11:23:14;98863.53;;;26.29;44.42
59240;BME280;45010;53.640;10.578;2023-08-01T11:26:14;98861.63;;;26.29;44.50
59240;BME280;45010;53.640;10.578;2023-08-01T11:29:16;98844.88;;;26.24;44.34
59240;BME280;45010;53.640;10.578;2023-08-01T11:32:16;98849.06;;;26.30;44.19
59240;BME280;45010;53.640;10.578;2023-08-01T11:35:17;98846.19;;;26.26;44.27
59240;BME280;45010;53.640;10.578;2023-08-01T11:38:20;98827.59;;;26.16;44.28
59240;BME280;45010;53.640;10.578;2023-08-01T11:41:21;98859.44;;;26.31;44.13
59240;BME280;45010;53.640;10.578;2023-08-01T11:44:24;98874.44;;;26.32;44.18
59240;BME280;45010;53.640;10.578;2023-08-01T11:47:24;98885.91;;;26.33;43.86
59240;BME280;45010;53.640;10.578;2023-08-01T11:50:25;98874.22;;;26.29;43.96
59240;BME280;45010;53.640;10.578;2023-08-01T11:53:26;98887.47;;;26.34;43.98
59240;BME280;45010;53.640;10.578;2023-08-01T11:56:27;98892.59;;;26.30;43.61
59240;BME280;45010;53.640;10.578;2023-08-01T11:59:27;98917.41;;;26.36;43.82
59240;BME280;45010;53.640;10.578;2023-08-01T12:02:29;98917.41;;;26.36;43.79
59240;BME280;45010;53.640;10.578;2023-08-01T12:05:32;98909.78;;;26.24;43.90
59240;BME280;45010;53.640;10.578;2023-08-01T12:08:32;98936.16;;;26.31;43.90
59240;BME280;45010;53.640;10.578;2023-08-01T12:11:33;98946.50;;;26.38;43.79
59240;BME280;45010;53.640;10.578;2023-08-01T12:14:33;98952.66;;;26.38;44.09
59240;BME280;45010;53.640;10.578;2023-08-01T12:17:33;98952.16;;;26.36;44.01
59240;BME280;45010;53.640;10.578;2023-08-01T12:20:34;98917.25;;;26.27;43.29
59240;BME280;45010;53.640;10.578;2023-08-01T12:23:35;98925.41;;;26.36;43.24
59240;BME280;45010;53.640;10.578;2023-08-01T12:26:36;98937.19;;;26.35;43.52
59240;BME280;45010;53.640;10.578;2023-08-01T12:29:36;98937.19;;;26.35;43.77
59240;BME280;45010;53.640;10.578;2023-08-01T12:32:36;98960.16;;;26.36;43.44
59240;BME280;45010;53.640;10.578;2023-08-01T12:35:41;98944.81;;;26.23;43.49
59240;BME280;45010;53.640;10.578;2023-08-01T12:38:42;98970.84;;;26.36;43.61
59240;BME280;45010;53.640;10.578;2023-08-01T12:41:42;98968.25;;;26.31;43.60
59240;BME280;45010;53.640;10.578;2023-08-01T12:44:42;98981.53;;;26.36;43.49
59240;BME280;45010;53.640;10.578;2023-08-01T12:47:43;98970.84;;;26.36;43.74
59240;BME280;45010;53.640;10.578;2023-08-01T12:50:44;98955.44;;;26.28;43.75
59240;BME280;45010;53.640;10.578;2023-08-01T12:53:48;98978.56;;;26.38;43.61
59240;BME280;45010;53.640;10.578;2023-08-01T12:56:49;98964.44;;;26.37;43.95
59240;BME280;45010;53.640;10.578;2023-08-01T12:59:49;98970.28;;;26.39;43.83
59240;BME280;45010;53.640;10.578;2023-08-01T13:02:49;98978.56;;;26.38;43.90
59240;BME280;45010;53.640;10.578;2023-08-01T13:05:50;98984.22;;;26.36;43.88
59240;BME280;45010;53.640;10.578;2023-08-01T13:08:52;98976.75;;;26.33;43.83
59240;BME280;45010;53.640;10.578;2023-08-01T13:11:53;98976.75;;;26.33;44.24
59240;BME280;45010;53.640;10.578;2023-08-01T13:14:53;98944.34;;;26.15;44.28
59240;BME280;45010;53.640;10.578;2023-08-01T13:17:54;98961.88;;;26.27;44.25
59240;BME280;45010;53.640;10.578;2023-08-01T13:20:56;98965.06;;;26.29;44.08
59240;BME280;45010;53.640;10.578;2023-08-01T13:23:57;98974.94;;;26.28;44.53
59240;BME280;45010;53.640;10.578;2023-08-01T13:26:58;98974.13;;;26.28;44.30
59240;BME280;45010;53.640;10.578;2023-08-01T13:29:58;98970.69;;;26.27;44.14
59240;BME280;45010;53.640;10.578;2023-08-01T13:32:59;98972.56;;;26.27;44.67
59240;BME280;45010;53.640;10.578;2023-08-01T13:35:59;98970.97;;;26.26;44.95
59240;BME280;45010;53.640;10.578;2023-08-01T13:38:59;98961.38;;;26.25;44.99
59240;BME280;45010;53.640;10.578;2023-08-01T13:41:59;98954.94;;;26.26;44.75
59240;BME280;45010;53.640;10.578;2023-08-01T13:45:00;98954.94;;;26.26;45.14
59240;BME280;45010;53.640;10.578;2023-08-01T13:48:00;98956.03;;;26.25;45.37
59240;BME280;45010;53.640;10.578;2023-08-01T13:51:00;98960.28;;;26.26;45.12
59240;BME280;45010;53.640;10.578;2023-08-01T13:54:01;98960.28;;;26.26;45.44
59240;BME280;45010;53.640;10.578;2023-08-01T13:57:01;98949.59;;;26.26;45.55
59240;BME280;45010;53.640;10.578;2023-08-01T14:00:02;98950.41;;;26.26;45.35
59240;BME280;45010;53.640;10.578;2023-08-01T14:03:03;98951.19;;;26.27;45.25
59240;BME280;45010;53.640;10.578;2023-08-01T14:06:08;98950.72;;;26.19;45.33
59240;BME280;45010;53.640;10.578;2023-08-01T14:09:09;98960.78;;;26.28;45.34
59240;BME280;45010;53.640;10.578;2023-08-01T14:12:09;98966.13;;;26.28;45.71
59240;BME280;45010;53.640;10.578;2023-08-01T14:15:10;98960.84;;;26.23;45.80
59240;BME280;45010;53.640;10.578;2023-08-01T14:18:11;98972.56;;;26.27;45.86
59240;BME280;45010;53.640;10.578;2023-08-01T14:21:11;98973.38;;;26.27;46.12
59240;BME280;45010;53.640;10.578;2023-08-01T14:24:11;98971.47;;;26.28;45.64
59240;BME280;45010;53.640;10.578;2023-08-01T14:27:12;98970.41;;;26.29;45.90
59240;BME280;45010;53.640;10.578;2023-08-01T14:30:12;98974.13;;;26.28;45.77
59240;BME280;45010;53.640;10.578;2023-08-01T14:33:12;98980.28;;;26.28;45.60
59240;BME280;45010;53.640;10.578;2023-08-01T14:36:14;98981.09;;;26.29;45.83
59240;BME280;45010;53.640;10.578;2023-08-01T14:39:15;98981.66;;;26.26;45.99
59240;BME280;45010;53.640;10.578;2023-08-01T14:42:15;98979.50;;;26.28;45.81
59240;BME280;45010;53.640;10.578;2023-08-01T14:45:16;98984.84;;;26.28;45.74
59240;BME280;45010;53.640;10.578;2023-08-01T14:48:16;98986.19;;;26.25;45.86
59240;BME280;45010;53.640;10.578;2023-08-01T14:51:16;98987.56;;;26.23;45.63
59240;BME280;45010;53.640;10.578;2023-08-01T14:54:17;99002.47;;;26.29;45.94
59240;BME280;45010;53.640;10.578;2023-08-01T14:57:17;98997.13;;;26.29;45.74
59240;BME280;45010;53.640;10.578;2023-08-01T15:00:17;99001.41;;;26.30;45.99
59240;BME280;45010;53.640;10.578;2023-08-01T15:03:18;99013.16;;;26.29;45.87
59240;BME280;45010;53.640;10.578;2023-08-01T15:06:18;99014.88;;;26.44;45.82
59240;BME280;45010;53.640;10.578;2023-08-01T15:09:19;99018.75;;;26.32;46.25
59240;BME280;45010;53.640;10.578;2023-08-01T15:12:19;99021.69;;;26.31;46.32
59240;BME280;45010;53.640;10.578;2023-08-01T15:15:26;99021.69;;;26.31;46.03
59240;BME280;45010;53.640;10.578;2023-08-01T15:18:27;99015.75;;;26.34;46.16
59240;BME280;45010;53.640;10.578;2023-08-01T15:21:27;99020.56;;;26.37;46.20
59240;BME280;45010;53.640;10.578;2023-08-01T15:24:30;98995.03;;;26.21;46.30
59240;BME280;45010;53.640;10.578;2023-08-01T15:27:30;99030.66;;;26.40;45.80
59240;BME280;45010;53.640;10.578;2023-08-01T15:30:30;99026.94;;;26.41;46.39
59240;BME280;45010;53.640;10.578;2023-08-01T15:33:35;99028.50;;;26.42;45.77
59240;BME280;45010;53.640;10.578;2023-08-01T15:36:35;99027.72;;;26.42;46.54
59240;BME280;45010;53.640;10.578;2023-08-01T15:39:36;99035.44;;;26.43;45.92
59240;BME280;45010;53.640;10.578;2023-08-01T15:42:36;99040.22;;;26.46;46.12
59240;BME280;45010;53.640;10.578;2023-08-01T15:45:36;99055.47;;;26.46;45.74